createdAt,value
2018-07-03T00:00:01.845Z,13.6
2018-07-03T00:01:09.462Z,13.6
2018-07-03T00:02:17.359Z,13.6
2018-07-03T00:03:25.263Z,13.5
2018-07-03T00:04:47.805Z,13.5
2018-07-03T00:05:55.688Z,13.5
2018-07-03T00:07:03.588Z,13.5
2018-07-03T00:08:11.473Z,13.5
2018-07-03T00:09:19.363Z,13.5
2018-07-03T00:10:27.251Z,13.5
2018-07-03T00:11:34.876Z,13.4
2018-07-03T00:12:42.751Z,13.4
2018-07-03T00:13:50.642Z,13.3
2018-07-03T00:14:58.271Z,13.3
2018-07-03T00:16:06.144Z,13.2
2018-07-03T00:17:14.215Z,13.2
2018-07-03T00:18:22.119Z,13.2
2018-07-03T00:19:29.765Z,13.1
2018-07-03T00:20:37.378Z,13.1
2018-07-03T00:21:45.264Z,13
2018-07-03T00:22:53.154Z,13
2018-07-03T00:24:01.045Z,12.9
2018-07-03T00:25:08.935Z,12.9
2018-07-03T00:26:16.843Z,12.9
2018-07-03T00:27:24.734Z,12.8
2018-07-03T00:28:32.651Z,12.8
2018-07-03T00:29:40.542Z,12.7
2018-07-03T00:30:48.153Z,12.6
2018-07-03T00:31:55.766Z,12.6
2018-07-03T00:33:03.651Z,12.5
2018-07-03T00:34:11.537Z,12.5
2018-07-03T00:35:19.426Z,12.4
2018-07-03T00:36:27.313Z,12.4
2018-07-03T00:37:35.194Z,12.4
2018-07-03T00:38:43.080Z,12.4
2018-07-03T00:39:51.252Z,12.4
2018-07-03T00:40:59.132Z,12.4
2018-07-03T00:42:06.748Z,12.4
2018-07-03T00:43:14.631Z,12.3
2018-07-03T00:44:22.523Z,12.2
2018-07-03T00:45:30.433Z,12.2
2018-07-03T00:46:38.316Z,12.1
2018-07-03T00:47:45.650Z,12.1
2018-07-03T00:48:53.546Z,12.1
2018-07-03T00:50:01.450Z,12
2018-07-03T00:51:09.332Z,12
2018-07-03T00:52:17.216Z,12
2018-07-03T00:53:25.359Z,12
2018-07-03T00:54:33.240Z,12
2018-07-03T00:55:41.135Z,11.9
2018-07-03T00:56:49.018Z,11.8
2018-07-03T00:57:56.903Z,11.8
2018-07-03T00:59:04.546Z,11.8
2018-07-03T01:00:12.154Z,11.8
2018-07-03T01:01:20.042Z,11.8
2018-07-03T01:02:27.933Z,11.7
2018-07-03T01:03:36.048Z,11.7
2018-07-03T01:04:43.655Z,11.6
2018-07-03T01:05:51.548Z,11.7
2018-07-03T01:06:59.425Z,11.7
2018-07-03T01:08:07.315Z,11.7
2018-07-03T01:09:15.201Z,11.7
2018-07-03T01:10:23.088Z,11.7
2018-07-03T01:11:30.716Z,11.6
2018-07-03T01:12:38.640Z,11.6
2018-07-03T01:13:46.531Z,11.6
2018-07-03T01:14:54.144Z,11.6
2018-07-03T01:16:02.035Z,11.6
2018-07-03T01:17:09.666Z,11.6
2018-07-03T01:18:17.551Z,11.6
2018-07-03T01:19:25.437Z,11.6
2018-07-03T01:20:33.346Z,11.6
2018-07-03T01:21:41.252Z,11.5
2018-07-03T01:22:49.140Z,11.5
2018-07-03T01:23:57.029Z,11.6
2018-07-03T01:25:04.931Z,11.6
2018-07-03T01:26:12.815Z,11.6
2018-07-03T01:27:20.702Z,11.6
2018-07-03T01:28:28.611Z,11.6
2018-07-03T01:29:36.224Z,11.6
2018-07-03T01:30:43.474Z,11.6
2018-07-03T01:31:51.361Z,11.6
2018-07-03T01:32:59.245Z,11.7
2018-07-03T01:34:06.856Z,11.7
2018-07-03T01:35:14.742Z,11.7
2018-07-03T01:36:22.629Z,11.7
2018-07-03T01:37:30.522Z,11.7
2018-07-03T01:38:38.405Z,11.7
2018-07-03T01:39:46.289Z,11.7
2018-07-03T01:40:54.182Z,11.8
2018-07-03T01:42:02.084Z,11.7
2018-07-03T01:43:09.962Z,11.7
2018-07-03T01:44:17.844Z,11.7
2018-07-03T01:45:25.726Z,11.7
2018-07-03T01:46:33.617Z,11.8
2018-07-03T01:47:41.504Z,11.7
2018-07-03T01:48:49.140Z,11.7
2018-07-03T01:49:56.756Z,11.7
2018-07-03T01:51:04.643Z,11.7
2018-07-03T01:52:12.530Z,11.7
2018-07-03T01:53:20.427Z,11.7
2018-07-03T01:54:28.316Z,11.7
2018-07-03T01:55:36.229Z,11.7
2018-07-03T01:56:43.832Z,11.7
2018-07-03T01:57:51.720Z,11.7
2018-07-03T01:58:59.615Z,11.8
2018-07-03T02:00:07.501Z,11.8
2018-07-03T02:01:15.395Z,11.8
2018-07-03T02:02:23.265Z,11.8
2018-07-03T02:03:31.151Z,11.9
2018-07-03T02:04:39.039Z,11.9
2018-07-03T02:05:46.944Z,11.9
2018-07-03T02:06:54.554Z,11.9
2018-07-03T02:08:02.437Z,11.9
2018-07-03T02:09:10.313Z,11.9
2018-07-03T02:10:17.926Z,11.8
2018-07-03T02:11:25.813Z,11.8
2018-07-03T02:12:33.420Z,11.7
2018-07-03T02:13:41.027Z,11.7
2018-07-03T02:14:48.920Z,11.7
2018-07-03T02:15:56.811Z,11.7
2018-07-03T02:17:04.699Z,11.7
2018-07-03T02:18:12.582Z,11.7
2018-07-03T02:19:20.474Z,11.7
2018-07-03T02:20:28.086Z,11.8
2018-07-03T02:21:35.973Z,11.8
2018-07-03T02:22:43.860Z,11.7
2018-07-03T02:23:51.742Z,11.7
2018-07-03T02:24:59.355Z,11.7
2018-07-03T02:26:07.237Z,11.7
2018-07-03T02:27:15.123Z,11.7
2018-07-03T02:28:23.006Z,11.6
2018-07-03T02:29:30.223Z,11.6
2018-07-03T02:30:37.161Z,11.7
2018-07-03T02:31:45.692Z,11.8
2018-07-03T02:32:53.578Z,11.8
2018-07-03T02:34:01.064Z,11.8
2018-07-03T02:35:08.958Z,11.8
2018-07-03T02:36:16.840Z,11.7
2018-07-03T02:37:24.455Z,11.7
2018-07-03T02:38:32.348Z,11.7
2018-07-03T02:39:40.233Z,11.6
2018-07-03T02:40:48.121Z,11.6
2018-07-03T02:41:56.005Z,11.7
2018-07-03T02:43:03.891Z,11.6
2018-07-03T02:44:11.783Z,11.7
2018-07-03T02:45:19.681Z,11.7
2018-07-03T02:46:27.574Z,11.8
2018-07-03T02:47:35.490Z,11.8
2018-07-03T02:48:43.153Z,11.7
2018-07-03T02:49:51.037Z,11.7
2018-07-03T02:50:58.926Z,11.7
2018-07-03T02:52:06.823Z,11.7
2018-07-03T02:53:14.730Z,11.8
2018-07-03T02:54:22.615Z,11.8
2018-07-03T02:55:30.498Z,11.8
2018-07-03T02:56:38.385Z,11.7
2018-07-03T02:57:46.275Z,11.7
2018-07-03T02:58:53.910Z,11.7
2018-07-03T03:00:01.817Z,11.6
2018-07-03T03:01:09.703Z,11.6
2018-07-03T03:02:17.589Z,11.6
2018-07-03T03:03:25.473Z,11.6
2018-07-03T03:04:33.361Z,11.5
2018-07-03T03:05:41.243Z,11.5
2018-07-03T03:06:49.152Z,11.5
2018-07-03T03:07:57.039Z,11.5
2018-07-03T03:09:04.926Z,11.5
2018-07-03T03:10:12.809Z,11.5
2018-07-03T03:11:20.693Z,11.5
2018-07-03T03:12:28.579Z,11.4
2018-07-03T03:13:36.468Z,11.4
2018-07-03T03:14:44.262Z,11.4
2018-07-03T03:15:52.140Z,11.5
2018-07-03T03:17:00.030Z,11.4
2018-07-03T03:18:07.911Z,11.5
2018-07-03T03:19:15.753Z,11.5
2018-07-03T03:20:23.638Z,11.5
2018-07-03T03:21:31.522Z,11.5
2018-07-03T03:22:39.131Z,11.5
2018-07-03T03:23:46.749Z,11.4
2018-07-03T03:24:54.626Z,11.4
2018-07-03T03:26:02.504Z,11.4
2018-07-03T03:27:10.391Z,11.4
2018-07-03T03:28:18.280Z,11.3
2018-07-03T03:29:26.159Z,11.3
2018-07-03T03:30:34.158Z,11.3
2018-07-03T03:31:41.855Z,11.3
2018-07-03T03:32:49.737Z,11.3
2018-07-03T03:33:57.356Z,11.3
2018-07-03T03:35:04.962Z,11.3
2018-07-03T03:36:12.575Z,11.3
2018-07-03T03:37:20.464Z,11.2
2018-07-03T03:38:28.074Z,11.2
2018-07-03T03:39:35.972Z,11.2
2018-07-03T03:40:43.859Z,11.1
2018-07-03T03:41:51.741Z,11.1
2018-07-03T03:42:59.626Z,11.1
2018-07-03T03:44:07.512Z,11
2018-07-03T03:45:15.392Z,11
2018-07-03T03:46:23.276Z,11
2018-07-03T03:47:31.159Z,11
2018-07-03T03:48:39.041Z,11
2018-07-03T03:49:46.628Z,11
2018-07-03T03:50:54.513Z,10.9
2018-07-03T03:52:02.432Z,10.9
2018-07-03T03:53:09.881Z,10.9
2018-07-03T03:54:17.999Z,10.9
2018-07-03T03:55:25.880Z,10.9
2018-07-03T03:56:33.489Z,10.8
2018-07-03T03:57:41.365Z,10.8
2018-07-03T03:58:48.974Z,10.7
2018-07-03T03:59:56.857Z,10.7
2018-07-03T04:01:04.671Z,10.7
2018-07-03T04:02:12.627Z,10.7
2018-07-03T04:03:20.706Z,10.7
2018-07-03T04:04:28.308Z,10.7
2018-07-03T04:05:35.919Z,10.7
2018-07-03T04:06:43.803Z,10.6
2018-07-03T04:07:51.686Z,10.7
2018-07-03T04:08:59.582Z,10.7
2018-07-03T04:10:07.463Z,10.8
2018-07-03T04:11:15.080Z,10.8
2018-07-03T04:12:22.678Z,10.9
2018-07-03T04:13:30.573Z,10.9
2018-07-03T04:14:38.455Z,10.9
2018-07-03T04:15:46.335Z,10.9
2018-07-03T04:16:54.226Z,10.9
2018-07-03T04:18:02.129Z,10.9
2018-07-03T04:19:10.020Z,11
2018-07-03T04:20:17.916Z,11
2018-07-03T04:21:25.539Z,11
2018-07-03T04:22:33.419Z,11
2018-07-03T04:23:41.047Z,11.1
2018-07-03T04:24:48.948Z,11.1
2018-07-03T04:25:56.557Z,11.1
2018-07-03T04:27:04.458Z,11.1
2018-07-03T04:28:12.341Z,11.1
2018-07-03T04:29:20.224Z,11.1
2018-07-03T04:30:28.124Z,11.2
2018-07-03T04:31:36.003Z,11.2
2018-07-03T04:32:43.888Z,11.2
2018-07-03T04:33:51.774Z,11.2
2018-07-03T04:34:59.657Z,11.3
2018-07-03T04:36:07.544Z,11.3
2018-07-03T04:37:15.159Z,11.3
2018-07-03T04:38:23.049Z,11.4
2018-07-03T04:39:30.934Z,11.5
2018-07-03T04:40:38.820Z,11.5
2018-07-03T04:41:46.461Z,11.5
2018-07-03T04:42:53.734Z,11.5
2018-07-03T04:44:01.625Z,11.5
2018-07-03T04:45:09.511Z,11.5
2018-07-03T04:46:17.133Z,11.6
2018-07-03T04:47:25.004Z,11.7
2018-07-03T04:48:32.905Z,11.6
2018-07-03T04:49:40.793Z,11.7
2018-07-03T04:50:48.690Z,11.7
2018-07-03T04:51:56.566Z,11.7
2018-07-03T04:53:04.458Z,11.8
2018-07-03T04:54:12.068Z,11.8
2018-07-03T04:55:19.954Z,11.8
2018-07-03T04:56:27.839Z,11.9
2018-07-03T04:57:35.720Z,11.9
2018-07-03T04:58:43.336Z,11.9
2018-07-03T04:59:51.216Z,12
2018-07-03T05:00:59.103Z,12.1
2018-07-03T05:02:06.995Z,12.1
2018-07-03T05:03:14.910Z,12.2
2018-07-03T05:04:22.802Z,12.2
2018-07-03T05:05:30.130Z,12.3
2018-07-03T05:06:38.016Z,12.3
2018-07-03T05:07:45.907Z,12.4
2018-07-03T05:08:53.792Z,12.5
2018-07-03T05:10:01.800Z,12.5
2018-07-03T05:11:09.116Z,12.7
2018-07-03T05:12:16.484Z,12.8
2018-07-03T05:13:24.370Z,12.9
2018-07-03T05:14:32.259Z,13
2018-07-03T05:15:40.147Z,13.2
2018-07-03T05:16:48.032Z,13.3
2018-07-03T05:17:55.910Z,13.4
2018-07-03T05:19:03.802Z,13.4
2018-07-03T05:20:11.687Z,13.4
2018-07-03T05:21:19.567Z,13.4
2018-07-03T05:22:27.452Z,13.5
2018-07-03T05:23:35.328Z,13.6
2018-07-03T05:24:43.400Z,13.7
2018-07-03T05:25:51.157Z,13.9
2018-07-03T05:26:58.768Z,14.1
2018-07-03T05:28:06.664Z,14.2
2018-07-03T05:29:14.005Z,14.4
2018-07-03T05:30:21.908Z,14.5
2018-07-03T05:31:29.956Z,14.7
2018-07-03T05:32:38.123Z,14.9
2018-07-03T05:33:46.021Z,15.1
2018-07-03T05:34:53.657Z,15.2
2018-07-03T05:36:01.267Z,15.5
2018-07-03T05:37:09.221Z,15.6
2018-07-03T05:38:17.072Z,15.8
2018-07-03T05:39:24.723Z,16
2018-07-03T05:40:32.640Z,16.1
2018-07-03T05:41:40.562Z,16.2
2018-07-03T05:42:48.202Z,16.3
2018-07-03T05:43:56.377Z,16.5
2018-07-03T05:45:04.288Z,16.5
2018-07-03T05:46:12.178Z,16.7
2018-07-03T05:47:19.790Z,16.8
2018-07-03T05:48:27.410Z,17
2018-07-03T05:49:35.028Z,17.1
2018-07-03T05:50:42.917Z,17.2
2018-07-03T05:51:50.768Z,17.3
2018-07-03T05:52:58.794Z,17.5
2018-07-03T05:54:06.688Z,17.6
2018-07-03T05:55:14.611Z,17.8
2018-07-03T05:56:22.282Z,18
2018-07-03T05:57:30.398Z,18.2
2018-07-03T05:58:38.303Z,18.4
2018-07-03T05:59:46.192Z,18.6
2018-07-03T06:00:54.077Z,18.8
2018-07-03T06:02:01.970Z,19
2018-07-03T06:03:09.858Z,19.2
2018-07-03T06:04:17.989Z,19.4
2018-07-03T06:05:25.869Z,19.5
2018-07-03T06:06:33.774Z,19.7
2018-07-03T06:07:41.666Z,19.7
2018-07-03T06:08:49.551Z,19.7
2018-07-03T06:09:57.176Z,19.8
2018-07-03T06:11:04.801Z,19.9
2018-07-03T06:12:12.700Z,20.1
2018-07-03T06:13:20.775Z,20.4
2018-07-03T06:14:28.665Z,20.5
2018-07-03T06:15:36.562Z,20.7
2018-07-03T06:16:44.467Z,20.8
2018-07-03T06:17:52.362Z,20.9
2018-07-03T06:19:00.254Z,21
2018-07-03T06:20:08.141Z,21.2
2018-07-03T06:21:16.030Z,21.2
2018-07-03T06:22:24.130Z,21
2018-07-03T06:23:32.041Z,21.1
2018-07-03T06:24:39.672Z,20.8
2018-07-03T06:25:47.577Z,21
2018-07-03T06:26:55.626Z,21.3
2018-07-03T06:28:03.512Z,21.5
2018-07-03T06:29:26.054Z,21.8
2018-07-03T06:30:33.943Z,22
2018-07-03T06:31:41.832Z,22
2018-07-03T06:32:49.719Z,22
2018-07-03T06:33:57.335Z,22.2
2018-07-03T06:35:05.375Z,22.3
2018-07-03T06:36:13.269Z,22.5
2018-07-03T06:37:21.229Z,22.5
2018-07-03T06:38:29.308Z,22.6
2018-07-03T06:39:37.206Z,22.8
2018-07-03T06:40:45.092Z,22.8
2018-07-03T06:41:53.000Z,22.9
2018-07-03T06:43:00.893Z,23
2018-07-03T06:44:08.804Z,23
2018-07-03T06:45:16.422Z,23
2018-07-03T06:46:24.314Z,23.2
2018-07-03T06:47:32.210Z,23.3
2018-07-03T06:48:40.113Z,23.3
2018-07-03T06:49:48.848Z,23.4
2018-07-03T06:50:56.491Z,23.5
2018-07-03T06:52:04.388Z,23.6
2018-07-03T06:53:12.289Z,23.6
2018-07-03T06:54:19.994Z,23.7
2018-07-03T06:55:27.902Z,23.9
2018-07-03T06:56:35.795Z,24.1
2018-07-03T06:57:43.722Z,23.9
2018-07-03T06:58:51.343Z,24.1
2018-07-03T06:59:59.236Z,24.1
2018-07-03T07:01:06.888Z,24
2018-07-03T07:02:14.508Z,23.8
2018-07-03T07:03:22.400Z,23.7
2018-07-03T07:04:30.295Z,23.9
2018-07-03T07:05:38.201Z,24.3
2018-07-03T07:06:46.343Z,24.6
2018-07-03T07:07:54.254Z,24.3
2018-07-03T07:09:02.439Z,24.1
2018-07-03T07:10:10.329Z,23.8
2018-07-03T07:11:18.221Z,23.8
2018-07-03T07:12:25.852Z,23.7
2018-07-03T07:13:33.759Z,23.7
2018-07-03T07:14:41.373Z,23.7
2018-07-03T07:15:49.274Z,23.7
2018-07-03T07:16:57.174Z,23.9
2018-07-03T07:18:05.069Z,24
2018-07-03T07:19:12.964Z,24.2
2018-07-03T07:20:20.858Z,24.3
2018-07-03T07:21:28.479Z,24.2
2018-07-03T07:22:36.409Z,24.2
2018-07-03T07:23:44.013Z,24.4
2018-07-03T07:24:51.649Z,24.4
2018-07-03T07:25:59.547Z,23.7
2018-07-03T07:27:07.429Z,23.5
2018-07-03T07:28:15.046Z,23.8
2018-07-03T07:29:22.943Z,24
2018-07-03T07:30:30.585Z,24
2018-07-03T07:31:38.490Z,23.9
2018-07-03T07:32:46.378Z,24.1
2018-07-03T07:33:54.277Z,24.6
2018-07-03T07:35:02.178Z,25
2018-07-03T07:36:10.066Z,25.2
2018-07-03T07:37:17.969Z,25
2018-07-03T07:38:25.868Z,25.3
2018-07-03T07:39:48.416Z,25.4
2018-07-03T07:40:56.313Z,25.4
2018-07-03T07:42:03.946Z,25.6
2018-07-03T07:43:11.859Z,25.5
2018-07-03T07:44:19.762Z,25.5
2018-07-03T07:45:27.384Z,25.4
2018-07-03T07:46:35.288Z,25.4
2018-07-03T07:47:43.182Z,25.4
2018-07-03T07:48:51.081Z,25.2
2018-07-03T07:49:58.976Z,24.9
2018-07-03T07:51:06.863Z,25
2018-07-03T07:52:14.751Z,24.6
2018-07-03T07:53:22.380Z,24.6
2018-07-03T07:54:30.273Z,24.9
2018-07-03T07:55:38.174Z,24.8
2018-07-03T07:56:46.088Z,25
2018-07-03T07:57:53.982Z,25.2
2018-07-03T07:59:01.900Z,25.4
2018-07-03T08:00:09.810Z,25.8
2018-07-03T08:01:17.781Z,25.9
2018-07-03T08:02:25.682Z,25.6
2018-07-03T08:03:33.590Z,25.7
2018-07-03T08:04:41.494Z,25.8
2018-07-03T08:05:49.388Z,25.9
2018-07-03T08:06:57.282Z,25.9
2018-07-03T08:08:05.175Z,26.1
2018-07-03T08:09:13.081Z,26.5
2018-07-03T08:10:20.973Z,26.6
2018-07-03T08:11:29.079Z,26.8
2018-07-03T08:12:36.710Z,26.9
2018-07-03T08:13:44.608Z,26.6
2018-07-03T08:14:52.500Z,26.9
2018-07-03T08:16:00.396Z,26.7
2018-07-03T08:17:08.297Z,26.5
2018-07-03T08:18:16.190Z,26.1
2018-07-03T08:19:24.119Z,26.3
2018-07-03T08:20:32.009Z,26.7
2018-07-03T08:21:39.907Z,26.3
2018-07-03T08:22:47.809Z,26.1
2018-07-03T08:23:55.438Z,26.1
2018-07-03T08:25:17.997Z,26.4
2018-07-03T08:26:26.137Z,26.4
2018-07-03T08:27:34.034Z,26.8
2018-07-03T08:28:41.645Z,27.4
2018-07-03T08:29:49.538Z,27.7
2018-07-03T08:30:57.441Z,27.5
2018-07-03T08:32:05.338Z,27.5
2018-07-03T08:33:13.235Z,27.7
2018-07-03T08:34:20.852Z,27.6
2018-07-03T08:35:28.750Z,27.6
2018-07-03T08:36:36.640Z,27.8
2018-07-03T08:37:44.633Z,28
2018-07-03T08:38:52.557Z,28
2018-07-03T08:40:00.462Z,28.3
2018-07-03T08:41:08.372Z,28.4
2018-07-03T08:42:15.993Z,28.6
2018-07-03T08:43:23.898Z,29.1
2018-07-03T08:44:31.515Z,29
2018-07-03T08:45:39.136Z,29.1
2018-07-03T08:46:47.038Z,29.3
2018-07-03T08:47:54.929Z,29.3
2018-07-03T08:49:02.832Z,29.5
2018-07-03T08:50:10.752Z,29.8
2018-07-03T08:51:18.651Z,29.8
2018-07-03T08:52:26.546Z,29.3
2018-07-03T08:53:34.443Z,29.3
2018-07-03T08:54:42.344Z,29.2
2018-07-03T08:55:50.247Z,28.8
2018-07-03T08:56:57.865Z,28.9
2018-07-03T08:58:05.772Z,29
2018-07-03T08:59:13.661Z,29.1
2018-07-03T09:00:21.566Z,29.1
2018-07-03T09:01:29.465Z,28.8
2018-07-03T09:02:37.373Z,27.8
2018-07-03T09:03:45.059Z,27.5
2018-07-03T09:04:53.006Z,27.9
2018-07-03T09:06:00.905Z,28.1
2018-07-03T09:07:08.493Z,28.6
2018-07-03T09:08:16.397Z,28.8
2018-07-03T09:09:24.562Z,29.1
2018-07-03T09:10:33.396Z,29.4
2018-07-03T09:11:41.310Z,29.1
2018-07-03T09:12:49.202Z,28.8
2018-07-03T09:13:57.108Z,28.6
2018-07-03T09:15:05.008Z,29
2018-07-03T09:16:12.911Z,29.2
2018-07-03T09:17:20.815Z,29.2
2018-07-03T09:18:28.730Z,29.1
2018-07-03T09:19:36.628Z,29.3
2018-07-03T09:20:44.562Z,29.4
2018-07-03T09:21:52.454Z,29.5
2018-07-03T09:23:00.377Z,29.7
2018-07-03T09:24:08.271Z,30.1
2018-07-03T09:25:16.187Z,30.3
2018-07-03T09:26:24.105Z,30.6
2018-07-03T09:27:32.025Z,30.9
2018-07-03T09:28:39.644Z,31.1
2018-07-03T09:29:47.572Z,30.8
2018-07-03T09:30:55.214Z,29.9
2018-07-03T09:32:03.133Z,29.6
2018-07-03T09:33:11.049Z,29.7
2018-07-03T09:34:18.950Z,29.9
2018-07-03T09:35:26.574Z,29.9
2018-07-03T09:36:34.484Z,30.1
2018-07-03T09:37:42.391Z,30.1
2018-07-03T09:38:50.010Z,29.7
2018-07-03T09:39:57.638Z,29.5
2018-07-03T09:41:05.538Z,29.6
2018-07-03T09:42:13.175Z,29.4
2018-07-03T09:43:21.085Z,29.6
2018-07-03T09:44:29.020Z,29.4
2018-07-03T09:45:36.937Z,29.7
2018-07-03T09:46:44.834Z,29.7
2018-07-03T09:47:52.734Z,29.7
2018-07-03T09:49:00.643Z,29.4
2018-07-03T09:50:08.269Z,29.5
2018-07-03T09:51:16.168Z,29.9
2018-07-03T09:52:24.063Z,30.4
2018-07-03T09:53:31.694Z,30.5
2018-07-03T09:54:39.371Z,30.4
2018-07-03T09:55:47.330Z,30
2018-07-03T09:56:55.223Z,30
2018-07-03T09:58:03.135Z,29.9
2018-07-03T09:59:11.085Z,30.1
2018-07-03T10:00:19.000Z,30.2
2018-07-03T10:01:26.908Z,30.4
2018-07-03T10:02:34.801Z,30.7
2018-07-03T10:03:42.709Z,31.1
2018-07-03T10:04:50.613Z,31.2
2018-07-03T10:05:58.520Z,30.4
2018-07-03T10:07:06.422Z,30.5
2018-07-03T10:08:14.322Z,30.8
2018-07-03T10:09:22.215Z,31.1
2018-07-03T10:10:30.115Z,31.7
2018-07-03T10:11:38.011Z,31.8
2018-07-03T10:12:45.627Z,31.5
2018-07-03T10:13:53.524Z,30.5
2018-07-03T10:15:01.446Z,29.8
2018-07-03T10:16:09.702Z,29.6
2018-07-03T10:17:17.822Z,29.5
2018-07-03T10:18:25.931Z,29.4
2018-07-03T10:19:33.836Z,29.5
2018-07-03T10:20:41.739Z,29.6
2018-07-03T10:21:49.641Z,30
2018-07-03T10:22:57.538Z,30.6
2018-07-03T10:24:05.439Z,30.6
2018-07-03T10:25:13.339Z,30.3
2018-07-03T10:26:21.246Z,29.9
2018-07-03T10:27:29.144Z,30.3
2018-07-03T10:28:37.041Z,30.6
2018-07-03T10:29:44.946Z,30.6
2018-07-03T10:30:52.847Z,30.3
2018-07-03T10:32:00.480Z,30.5
2018-07-03T10:33:08.379Z,30.9
2018-07-03T10:34:16.279Z,31.3
2018-07-03T10:35:23.912Z,31.6
2018-07-03T10:36:31.820Z,31.3
2018-07-03T10:37:39.752Z,31.1
2018-07-03T10:38:47.679Z,30.6
2018-07-03T10:39:55.574Z,30.6
2018-07-03T10:41:03.513Z,30.3
2018-07-03T10:42:11.555Z,30.7
2018-07-03T10:43:19.515Z,31.2
2018-07-03T10:44:27.397Z,31.3
2018-07-03T10:45:35.918Z,31.3
2018-07-03T10:46:43.858Z,31.1
2018-07-03T10:47:51.484Z,31.3
2018-07-03T10:48:59.389Z,31.2
2018-07-03T10:50:07.282Z,31.1
2018-07-03T10:51:14.927Z,31.1
2018-07-03T10:52:22.832Z,31.1
2018-07-03T10:53:30.733Z,31.1
2018-07-03T10:54:38.638Z,31.3
2018-07-03T10:55:46.545Z,31.9
2018-07-03T10:56:54.458Z,32.3
2018-07-03T10:58:02.362Z,32.5
2018-07-03T10:59:09.987Z,31.7
2018-07-03T11:00:17.900Z,31.8
2018-07-03T11:01:25.531Z,32.3
2018-07-03T11:02:33.162Z,32.9
2018-07-03T11:03:41.068Z,33.5
2018-07-03T11:04:48.979Z,33.9
2018-07-03T11:05:56.878Z,33.8
2018-07-03T11:07:04.778Z,33.6
2018-07-03T11:08:12.681Z,33.4
2018-07-03T11:09:20.599Z,33.3
2018-07-03T11:10:28.231Z,33
2018-07-03T11:11:36.143Z,33.1
2018-07-03T11:12:44.048Z,33
2018-07-03T11:13:52.065Z,32.9
2018-07-03T11:15:00.160Z,32.6
2018-07-03T11:16:08.095Z,32.5
2018-07-03T11:17:15.998Z,32.7
2018-07-03T11:18:23.899Z,32.9
2018-07-03T11:19:31.803Z,33
2018-07-03T11:20:39.749Z,33
2018-07-03T11:21:47.655Z,33.3
2018-07-03T11:22:55.571Z,33.8
2018-07-03T11:24:03.482Z,33.8
2018-07-03T11:25:11.394Z,33.2
2018-07-03T11:26:19.303Z,33.5
2018-07-03T11:27:27.199Z,33.7
2018-07-03T11:28:35.111Z,34.1
2018-07-03T11:29:43.031Z,34.2
2018-07-03T11:30:50.651Z,33.6
2018-07-03T11:31:58.592Z,33.4
2018-07-03T11:33:06.497Z,33.6
2018-07-03T11:34:14.409Z,34.2
2018-07-03T11:35:22.042Z,34.6
2018-07-03T11:36:29.942Z,35.1
2018-07-03T11:37:37.592Z,35.5
2018-07-03T11:38:45.291Z,35.7
2018-07-03T11:39:53.212Z,35.2
2018-07-03T11:41:01.139Z,34.4
2018-07-03T11:42:08.782Z,33.8
2018-07-03T11:43:16.769Z,33.7
2018-07-03T11:44:24.914Z,33
2018-07-03T11:45:32.564Z,33.4
2018-07-03T11:46:40.351Z,33.9
2018-07-03T11:47:48.404Z,34.2
2018-07-03T11:48:56.306Z,34.6
2018-07-03T11:50:04.273Z,35.2
2018-07-03T11:51:11.908Z,35.2
2018-07-03T11:52:19.810Z,35.2
2018-07-03T11:53:27.769Z,35.3
2018-07-03T11:54:35.687Z,35.4
2018-07-03T11:55:43.584Z,35.4
2018-07-03T11:56:51.236Z,35.2
2018-07-03T11:57:59.140Z,34.9
2018-07-03T11:59:06.764Z,34.7
2018-07-03T12:00:14.392Z,34.6
2018-07-03T12:01:22.617Z,35
2018-07-03T12:02:30.557Z,35.1
2018-07-03T12:03:38.488Z,35.3
2018-07-03T12:04:46.434Z,35.7
2018-07-03T12:05:54.342Z,35.8
2018-07-03T12:07:02.268Z,35.6
2018-07-03T12:08:09.901Z,35.5
2018-07-03T12:09:17.827Z,35.2
2018-07-03T12:10:25.738Z,35
2018-07-03T12:11:33.650Z,34.7
2018-07-03T12:12:41.559Z,34.6
2018-07-03T12:13:49.472Z,34.4
2018-07-03T12:14:57.102Z,34.4
2018-07-03T12:16:05.056Z,34.3
2018-07-03T12:17:12.965Z,34.2
2018-07-03T12:18:21.106Z,34.4
2018-07-03T12:19:29.050Z,34.7
2018-07-03T12:20:37.026Z,34.4
2018-07-03T12:21:44.927Z,34.3
2018-07-03T12:22:52.557Z,34.3
2018-07-03T12:24:00.464Z,34.1
2018-07-03T12:25:08.399Z,34.4
2018-07-03T12:26:16.047Z,34.5
2018-07-03T12:27:24.176Z,34.3
2018-07-03T12:28:32.111Z,34.7
2018-07-03T12:29:40.006Z,34.3
2018-07-03T12:30:47.908Z,34.1
2018-07-03T12:31:56.050Z,34.2
2018-07-03T12:33:04.304Z,33.8
2018-07-03T12:34:12.227Z,33.9
2018-07-03T12:35:20.130Z,34
2018-07-03T12:36:27.776Z,34
2018-07-03T12:37:35.697Z,33.7
2018-07-03T12:38:43.333Z,33.6
2018-07-03T12:39:51.245Z,33.7
2018-07-03T12:40:59.196Z,33.7
2018-07-03T12:42:07.091Z,33.9
2018-07-03T12:43:14.453Z,34.6
2018-07-03T12:44:22.350Z,34.9
2018-07-03T12:45:29.994Z,34.5
2018-07-03T12:46:37.916Z,34
2018-07-03T12:47:45.814Z,34.1
2018-07-03T12:48:53.740Z,33.6
2018-07-03T12:50:01.372Z,33
2018-07-03T12:51:09.275Z,33
2018-07-03T12:52:17.175Z,33.4
2018-07-03T12:53:25.080Z,33.7
2018-07-03T12:54:32.990Z,34.1
2018-07-03T12:55:40.887Z,34.5
2018-07-03T12:56:48.787Z,34.6
2018-07-03T12:57:56.690Z,34.5
2018-07-03T12:59:04.590Z,34.6
2018-07-03T13:00:12.490Z,34.8
2018-07-03T13:01:20.392Z,35.5
2018-07-03T13:02:28.284Z,35.8
2018-07-03T13:03:36.188Z,36
2018-07-03T13:04:44.096Z,36.4
2018-07-03T13:05:51.994Z,36.8
2018-07-03T13:06:59.921Z,36.5
2018-07-03T13:08:07.969Z,36.2
2018-07-03T13:09:16.027Z,36.2
2018-07-03T13:10:23.932Z,35.7
2018-07-03T13:11:31.834Z,35.5
2018-07-03T13:12:39.452Z,34.3
2018-07-03T13:13:47.385Z,33.4
2018-07-03T13:14:55.285Z,33
2018-07-03T13:16:03.198Z,32.4
2018-07-03T13:17:11.117Z,32.5
2018-07-03T13:18:19.050Z,33
2018-07-03T13:19:26.950Z,33.3
2018-07-03T13:20:34.575Z,34.1
2018-07-03T13:21:42.486Z,34.6
2018-07-03T13:22:49.837Z,34.6
2018-07-03T13:23:57.944Z,34.9
2018-07-03T13:25:05.569Z,35.2
2018-07-03T13:26:13.491Z,35.4
2018-07-03T13:27:21.417Z,35.5
2018-07-03T13:28:29.330Z,35.6
2018-07-03T13:29:37.231Z,35.9
2018-07-03T13:30:45.135Z,36
2018-07-03T13:31:53.040Z,36.3
2018-07-03T13:33:00.956Z,36.5
2018-07-03T13:34:08.878Z,36.4
2018-07-03T13:35:16.801Z,36
2018-07-03T13:36:24.768Z,35.8
2018-07-03T13:37:32.700Z,35.7
2018-07-03T13:38:40.599Z,35.9
2018-07-03T13:39:48.265Z,36
2018-07-03T13:40:56.175Z,35.5
2018-07-03T13:42:03.847Z,35.5
2018-07-03T13:43:11.801Z,35.8
2018-07-03T13:44:19.704Z,36
2018-07-03T13:45:27.068Z,36.2
2018-07-03T13:46:34.974Z,36.6
2018-07-03T13:47:42.887Z,36.7
2018-07-03T13:48:50.530Z,36.9
2018-07-03T13:49:58.437Z,37.3
2018-07-03T13:51:06.329Z,37.5
2018-07-03T13:52:13.969Z,37.7
2018-07-03T13:53:21.876Z,37.3
2018-07-03T13:54:29.779Z,36.9
2018-07-03T13:55:37.781Z,36.7
2018-07-03T13:56:45.867Z,36.8
2018-07-03T13:57:53.498Z,36.5
2018-07-03T13:59:01.389Z,35.7
2018-07-03T14:00:09.014Z,35.6
2018-07-03T14:01:16.375Z,35.7
2018-07-03T14:02:24.271Z,35.9
2018-07-03T14:03:32.167Z,36.1
2018-07-03T14:04:40.095Z,36.1
2018-07-03T14:05:47.992Z,36.5
2018-07-03T14:06:55.904Z,36.8
2018-07-03T14:08:03.810Z,37
2018-07-03T14:09:11.744Z,37.2
2018-07-03T14:10:19.649Z,36.8
2018-07-03T14:11:27.588Z,36.8
2018-07-03T14:12:35.217Z,37.1
2018-07-03T14:13:43.122Z,37.5
2018-07-03T14:14:50.751Z,37.9
2018-07-03T14:15:58.688Z,37.7
2018-07-03T14:17:06.590Z,37.1
2018-07-03T14:18:14.510Z,37
2018-07-03T14:19:22.142Z,36.7
2018-07-03T14:20:30.046Z,36.1
2018-07-03T14:21:37.952Z,35.3
2018-07-03T14:22:45.853Z,35.7
2018-07-03T14:23:53.764Z,36.1
2018-07-03T14:25:01.663Z,36.4
2018-07-03T14:26:09.622Z,36.8
2018-07-03T14:27:17.626Z,36.8
2018-07-03T14:28:25.527Z,37
2018-07-03T14:29:33.471Z,37.2
2018-07-03T14:30:41.376Z,37.4
2018-07-03T14:31:48.967Z,37.6
2018-07-03T14:32:56.872Z,37.6
2018-07-03T14:34:04.804Z,37.1
2018-07-03T14:35:12.713Z,36.5
2018-07-03T14:36:20.727Z,36.1
2018-07-03T14:37:28.678Z,36.3
2018-07-03T14:38:36.302Z,36.5
2018-07-03T14:39:44.205Z,36.5
2018-07-03T14:40:52.111Z,36.5
2018-07-03T14:41:59.465Z,36
2018-07-03T14:43:07.374Z,35.9
2018-07-03T14:44:15.000Z,35.2
2018-07-03T14:45:22.904Z,34.1
2018-07-03T14:46:30.816Z,33.9
2018-07-03T14:47:38.721Z,33.9
2018-07-03T14:48:46.353Z,34.4
2018-07-03T14:49:54.258Z,34.9
2018-07-03T14:51:02.185Z,35.1
2018-07-03T14:52:10.085Z,35.2
2018-07-03T14:53:17.442Z,34.9
2018-07-03T14:54:25.347Z,34.9
2018-07-03T14:55:33.258Z,34.9
2018-07-03T14:56:40.910Z,35
2018-07-03T14:57:48.813Z,35.3
2018-07-03T14:58:56.717Z,35.7
2018-07-03T15:00:04.635Z,35.9
2018-07-03T15:01:12.537Z,36.4
2018-07-03T15:02:20.369Z,36.5
2018-07-03T15:03:28.607Z,36.4
2018-07-03T15:04:36.502Z,36.7
2018-07-03T15:05:44.123Z,37
2018-07-03T15:06:52.031Z,37.1
2018-07-03T15:07:59.935Z,37
2018-07-03T15:09:07.945Z,36.2